Carroll Plt, Maine
Current Conditions -  °F | °C
As of 9:53 PM on Saturday 25 Oct 2014 (Local Time) from KMLT Reporting Station
Clear Clear  
Wind Chill: 35°   Ceiling: Unl
Heat Index: 40°   Visibility: 10mi
Dew Point: 38°   Wind: 7mph
Humidity: 93%   Direction: 90°E
Pressure: 29.5"   Gusts: NA
Location:  45.3189°N, 68.0613°W
Report Text: KMLT 260153Z AUTO 09006KT 10SM CLR 04/03 A2950 RMK AO2 SLP996 T00440033
Loading
Personal Weather Stations






























Interactive Weather Map
Tropical Storm Tracking
New forecast layout! Learn more

10-Day Weather Forecast

Advertisements
Track Severe Weather on mobile